sensor_id;sensor_type;location;lat;lon;timestamp;P1;durP1;ratioP1;P2;durP2;ratioP2
10096;SDS011;5087;42.662;23.466;2022-11-20T00:00:22;2.67;;;2.67;;
10096;SDS011;5087;42.662;23.466;2022-11-20T00:02:50;2.10;;;2.10;;
10096;SDS011;5087;42.662;23.466;2022-11-20T00:05:17;2.43;;;2.43;;
10096;SDS011;5087;42.662;23.466;2022-11-20T00:07:46;2.33;;;2.33;;
10096;SDS011;5087;42.662;23.466;2022-11-20T00:10:14;2.00;;;2.00;;
10096;SDS011;5087;42.662;23.466;2022-11-20T00:12:42;2.13;;;2.13;;
10096;SDS011;5087;42.662;23.466;2022-11-20T00:15:13;2.50;;;2.50;;
10096;SDS011;5087;42.662;23.466;2022-11-20T00:17:41;2.40;;;2.40;;
10096;SDS011;5087;42.662;23.466;2022-11-20T00:20:09;2.87;;;2.87;;
10096;SDS011;5087;42.662;23.466;2022-11-20T00:22:38;3.90;;;3.90;;
10096;SDS011;5087;42.662;23.466;2022-11-20T00:25:05;3.50;;;3.50;;
10096;SDS011;5087;42.662;23.466;2022-11-20T00:27:33;4.20;;;4.10;;
10096;SDS011;5087;42.662;23.466;2022-11-20T00:30:01;4.23;;;4.13;;
10096;SDS011;5087;42.662;23.466;2022-11-20T00:32:29;4.20;;;4.10;;
10096;SDS011;5087;42.662;23.466;2022-11-20T00:34:56;3.80;;;3.80;;
10096;SDS011;5087;42.662;23.466;2022-11-20T00:37:24;4.50;;;4.40;;
10096;SDS011;5087;42.662;23.466;2022-11-20T00:39:51;4.20;;;4.10;;
10096;SDS011;5087;42.662;23.466;2022-11-20T00:42:18;4.00;;;3.97;;
10096;SDS011;5087;42.662;23.466;2022-11-20T00:44:45;4.67;;;4.57;;
10096;SDS011;5087;42.662;23.466;2022-11-20T00:47:13;4.70;;;4.60;;
10096;SDS011;5087;42.662;23.466;2022-11-20T00:49:41;4.70;;;4.60;;
10096;SDS011;5087;42.662;23.466;2022-11-20T00:52:08;4.30;;;4.20;;
10096;SDS011;5087;42.662;23.466;2022-11-20T00:54:38;4.40;;;4.30;;
10096;SDS011;5087;42.662;23.466;2022-11-20T00:57:05;4.63;;;4.53;;
10096;SDS011;5087;42.662;23.466;2022-11-20T00:59:32;4.60;;;4.50;;
10096;SDS011;5087;42.662;23.466;2022-11-20T01:01:59;4.30;;;4.20;;
10096;SDS011;5087;42.662;23.466;2022-11-20T01:04:27;4.40;;;4.30;;
10096;SDS011;5087;42.662;23.466;2022-11-20T01:06:55;3.80;;;3.80;;
10096;SDS011;5087;42.662;23.466;2022-11-20T01:09:23;3.87;;;3.87;;
10096;SDS011;5087;42.662;23.466;2022-11-20T01:11:50;3.70;;;3.70;;
10096;SDS011;5087;42.662;23.466;2022-11-20T01:14:18;3.47;;;3.47;;
10096;SDS011;5087;42.662;23.466;2022-11-20T01:16:47;3.03;;;3.03;;
10096;SDS011;5087;42.662;23.466;2022-11-20T01:19:16;2.20;;;2.20;;
10096;SDS011;5087;42.662;23.466;2022-11-20T01:21:49;1.80;;;1.80;;
10096;SDS011;5087;42.662;23.466;2022-11-20T01:24:20;1.60;;;1.60;;
10096;SDS011;5087;42.662;23.466;2022-11-20T01:26:48;1.43;;;1.43;;
10096;SDS011;5087;42.662;23.466;2022-11-20T01:29:18;2.20;;;2.20;;
10096;SDS011;5087;42.662;23.466;2022-11-20T01:31:47;1.77;;;1.77;;
10096;SDS011;5087;42.662;23.466;2022-11-20T01:34:16;2.10;;;2.10;;
10096;SDS011;5087;42.662;23.466;2022-11-20T01:36:47;1.30;;;1.30;;
10096;SDS011;5087;42.662;23.466;2022-11-20T01:39:16;1.30;;;1.30;;
10096;SDS011;5087;42.662;23.466;2022-11-20T01:41:47;2.50;;;2.50;;
10096;SDS011;5087;42.662;23.466;2022-11-20T01:44:49;3.60;;;3.60;;
10096;SDS011;5087;42.662;23.466;2022-11-20T01:47:20;3.60;;;3.60;;
10096;SDS011;5087;42.662;23.466;2022-11-20T01:49:52;3.40;;;3.40;;
10096;SDS011;5087;42.662;23.466;2022-11-20T01:52:24;3.50;;;3.50;;
10096;SDS011;5087;42.662;23.466;2022-11-20T01:54:58;4.00;;;3.90;;
10096;SDS011;5087;42.662;23.466;2022-11-20T01:57:29;4.40;;;4.30;;
10096;SDS011;5087;42.662;23.466;2022-11-20T01:59:59;4.20;;;4.10;;
10096;SDS011;5087;42.662;23.466;2022-11-20T02:02:37;3.80;;;3.80;;
10096;SDS011;5087;42.662;23.466;2022-11-20T02:05:10;3.73;;;3.73;;
10096;SDS011;5087;42.662;23.466;2022-11-20T02:07:46;4.10;;;4.00;;
10096;SDS011;5087;42.662;23.466;2022-11-20T02:10:15;4.20;;;4.10;;
10096;SDS011;5087;42.662;23.466;2022-11-20T02:12:42;4.20;;;4.10;;
10096;SDS011;5087;42.662;23.466;2022-11-20T02:15:27;4.33;;;4.23;;
10096;SDS011;5087;42.662;23.466;2022-11-20T02:17:54;4.30;;;4.20;;
10096;SDS011;5087;42.662;23.466;2022-11-20T02:20:21;3.87;;;3.87;;
10096;SDS011;5087;42.662;23.466;2022-11-20T02:22:50;3.80;;;3.80;;
10096;SDS011;5087;42.662;23.466;2022-11-20T02:25:25;3.83;;;3.83;;
10096;SDS011;5087;42.662;23.466;2022-11-20T02:27:54;3.80;;;3.80;;
10096;SDS011;5087;42.662;23.466;2022-11-20T02:30:22;3.80;;;3.80;;
10096;SDS011;5087;42.662;23.466;2022-11-20T02:32:50;3.80;;;3.80;;
10096;SDS011;5087;42.662;23.466;2022-11-20T02:38:07;4.07;;;4.00;;
10096;SDS011;5087;42.662;23.466;2022-11-20T02:40:36;3.90;;;3.90;;
10096;SDS011;5087;42.662;23.466;2022-11-20T02:43:04;3.90;;;3.90;;
10096;SDS011;5087;42.662;23.466;2022-11-20T02:45:31;3.40;;;3.40;;
10096;SDS011;5087;42.662;23.466;2022-11-20T02:47:58;4.10;;;4.00;;
10096;SDS011;5087;42.662;23.466;2022-11-20T02:50:29;3.43;;;3.43;;
10096;SDS011;5087;42.662;23.466;2022-11-20T02:52:56;4.27;;;4.17;;
10096;SDS011;5087;42.662;23.466;2022-11-20T02:55:23;3.40;;;3.40;;
10096;SDS011;5087;42.662;23.466;2022-11-20T02:57:55;3.50;;;3.50;;
10096;SDS011;5087;42.662;23.466;2022-11-20T03:00:22;3.70;;;3.70;;
10096;SDS011;5087;42.662;23.466;2022-11-20T03:02:50;3.57;;;3.57;;
10096;SDS011;5087;42.662;23.466;2022-11-20T03:05:17;3.27;;;3.27;;
10096;SDS011;5087;42.662;23.466;2022-11-20T03:07:47;3.40;;;3.40;;
10096;SDS011;5087;42.662;23.466;2022-11-20T03:10:14;3.47;;;3.47;;
10096;SDS011;5087;42.662;23.466;2022-11-20T03:12:42;3.50;;;3.50;;
10096;SDS011;5087;42.662;23.466;2022-11-20T03:15:10;3.60;;;3.60;;
10096;SDS011;5087;42.662;23.466;2022-11-20T03:17:38;3.10;;;3.10;;
10096;SDS011;5087;42.662;23.466;2022-11-20T03:20:05;3.30;;;3.30;;
10096;SDS011;5087;42.662;23.466;2022-11-20T03:22:34;3.40;;;3.40;;
10096;SDS011;5087;42.662;23.466;2022-11-20T03:25:02;3.50;;;3.50;;
10096;SDS011;5087;42.662;23.466;2022-11-20T03:27:31;3.40;;;3.40;;
10096;SDS011;5087;42.662;23.466;2022-11-20T03:30:00;3.30;;;3.30;;
10096;SDS011;5087;42.662;23.466;2022-11-20T03:32:29;3.30;;;3.30;;
10096;SDS011;5087;42.662;23.466;2022-11-20T03:34:56;3.10;;;3.10;;
10096;SDS011;5087;42.662;23.466;2022-11-20T03:37:24;3.00;;;3.00;;
10096;SDS011;5087;42.662;23.466;2022-11-20T03:39:51;3.10;;;3.10;;
10096;SDS011;5087;42.662;23.466;2022-11-20T03:42:18;3.20;;;3.20;;
10096;SDS011;5087;42.662;23.466;2022-11-20T03:45:03;3.20;;;3.20;;
10096;SDS011;5087;42.662;23.466;2022-11-20T03:47:33;2.60;;;2.60;;
10096;SDS011;5087;42.662;23.466;2022-11-20T03:50:01;2.30;;;2.30;;
10096;SDS011;5087;42.662;23.466;2022-11-20T03:52:28;2.80;;;2.80;;
10096;SDS011;5087;42.662;23.466;2022-11-20T03:54:56;2.40;;;2.40;;
10096;SDS011;5087;42.662;23.466;2022-11-20T03:57:23;2.70;;;2.70;;
10096;SDS011;5087;42.662;23.466;2022-11-20T03:59:50;2.50;;;2.50;;
10096;SDS011;5087;42.662;23.466;2022-11-20T04:02:17;2.70;;;2.70;;
10096;SDS011;5087;42.662;23.466;2022-11-20T04:04:46;2.60;;;2.60;;
10096;SDS011;5087;42.662;23.466;2022-11-20T04:07:17;2.30;;;2.30;;
10096;SDS011;5087;42.662;23.466;2022-11-20T04:09:44;2.60;;;2.60;;
10096;SDS011;5087;42.662;23.466;2022-11-20T04:12:12;2.50;;;2.50;;
10096;SDS011;5087;42.662;23.466;2022-11-20T04:14:39;2.30;;;2.30;;
10096;SDS011;5087;42.662;23.466;2022-11-20T04:17:07;2.30;;;2.30;;
10096;SDS011;5087;42.662;23.466;2022-11-20T04:19:34;2.20;;;2.20;;
10096;SDS011;5087;42.662;23.466;2022-11-20T04:22:03;2.60;;;2.60;;
10096;SDS011;5087;42.662;23.466;2022-11-20T04:24:31;2.40;;;2.40;;
10096;SDS011;5087;42.662;23.466;2022-11-20T04:26:58;2.80;;;2.80;;
10096;SDS011;5087;42.662;23.466;2022-11-20T04:29:27;2.00;;;2.00;;
10096;SDS011;5087;42.662;23.466;2022-11-20T04:31:54;2.40;;;2.40;;
10096;SDS011;5087;42.662;23.466;2022-11-20T04:34:21;2.23;;;2.23;;
10096;SDS011;5087;42.662;23.466;2022-11-20T04:36:48;2.10;;;2.10;;
10096;SDS011;5087;42.662;23.466;2022-11-20T04:39:18;2.20;;;2.20;;
10096;SDS011;5087;42.662;23.466;2022-11-20T04:41:46;2.40;;;2.40;;
10096;SDS011;5087;42.662;23.466;2022-11-20T04:44:13;2.20;;;2.20;;
10096;SDS011;5087;42.662;23.466;2022-11-20T04:46:41;2.50;;;2.50;;
10096;SDS011;5087;42.662;23.466;2022-11-20T04:49:10;2.80;;;2.80;;
10096;SDS011;5087;42.662;23.466;2022-11-20T04:51:38;2.60;;;2.60;;
10096;SDS011;5087;42.662;23.466;2022-11-20T04:54:06;2.50;;;2.50;;
10096;SDS011;5087;42.662;23.466;2022-11-20T04:56:34;3.30;;;3.30;;
10096;SDS011;5087;42.662;23.466;2022-11-20T04:59:02;2.67;;;2.67;;
10096;SDS011;5087;42.662;23.466;2022-11-20T05:01:29;2.57;;;2.57;;
10096;SDS011;5087;42.662;23.466;2022-11-20T05:03:57;2.50;;;2.50;;
10096;SDS011;5087;42.662;23.466;2022-11-20T05:06:25;2.70;;;2.70;;
10096;SDS011;5087;42.662;23.466;2022-11-20T05:08:52;2.70;;;2.70;;
10096;SDS011;5087;42.662;23.466;2022-11-20T05:11:20;2.70;;;2.70;;
10096;SDS011;5087;42.662;23.466;2022-11-20T05:13:57;2.90;;;2.90;;
10096;SDS011;5087;42.662;23.466;2022-11-20T05:16:26;2.60;;;2.60;;
10096;SDS011;5087;42.662;23.466;2022-11-20T05:18:53;2.50;;;2.50;;
10096;SDS011;5087;42.662;23.466;2022-11-20T05:21:21;2.40;;;2.40;;
10096;SDS011;5087;42.662;23.466;2022-11-20T05:23:48;2.40;;;2.40;;
10096;SDS011;5087;42.662;23.466;2022-11-20T05:26:22;2.30;;;2.30;;
10096;SDS011;5087;42.662;23.466;2022-11-20T05:28:50;2.80;;;2.80;;
10096;SDS011;5087;42.662;23.466;2022-11-20T05:31:24;2.57;;;2.57;;
10096;SDS011;5087;42.662;23.466;2022-11-20T05:33:52;2.60;;;2.60;;
10096;SDS011;5087;42.662;23.466;2022-11-20T05:36:23;2.90;;;2.90;;
10096;SDS011;5087;42.662;23.466;2022-11-20T05:38:50;3.20;;;3.20;;
10096;SDS011;5087;42.662;23.466;2022-11-20T05:41:18;4.23;;;4.13;;
10096;SDS011;5087;42.662;23.466;2022-11-20T05:43:46;3.20;;;3.20;;
10096;SDS011;5087;42.662;23.466;2022-11-20T05:46:16;3.40;;;3.40;;
10096;SDS011;5087;42.662;23.466;2022-11-20T05:48:47;3.57;;;3.57;;
10096;SDS011;5087;42.662;23.466;2022-11-20T05:51:16;3.13;;;3.13;;
10096;SDS011;5087;42.662;23.466;2022-11-20T05:53:47;2.90;;;2.90;;
10096;SDS011;5087;42.662;23.466;2022-11-20T05:56:16;3.00;;;3.00;;
10096;SDS011;5087;42.662;23.466;2022-11-20T05:58:48;2.90;;;2.90;;
10096;SDS011;5087;42.662;23.466;2022-11-20T06:01:17;2.80;;;2.80;;
10096;SDS011;5087;42.662;23.466;2022-11-20T06:03:51;3.30;;;3.30;;
10096;SDS011;5087;42.662;23.466;2022-11-20T06:06:19;3.30;;;3.30;;
10096;SDS011;5087;42.662;23.466;2022-11-20T06:08:48;3.10;;;3.10;;
10096;SDS011;5087;42.662;23.466;2022-11-20T06:11:16;3.00;;;3.00;;
10096;SDS011;5087;42.662;23.466;2022-11-20T06:13:44;2.70;;;2.70;;
10096;SDS011;5087;42.662;23.466;2022-11-20T06:16:16;3.07;;;3.07;;
10096;SDS011;5087;42.662;23.466;2022-11-20T06:18:46;2.90;;;2.90;;
10096;SDS011;5087;42.662;23.466;2022-11-20T06:21:15;2.80;;;2.80;;
10096;SDS011;5087;42.662;23.466;2022-11-20T06:23:45;2.77;;;2.77;;
10096;SDS011;5087;42.662;23.466;2022-11-20T06:26:14;3.20;;;3.20;;
10096;SDS011;5087;42.662;23.466;2022-11-20T06:28:42;3.00;;;3.00;;
10096;SDS011;5087;42.662;23.466;2022-11-20T06:31:10;3.20;;;3.20;;
10096;SDS011;5087;42.662;23.466;2022-11-20T06:33:38;3.03;;;3.03;;
10096;SDS011;5087;42.662;23.466;2022-11-20T06:36:06;3.30;;;3.30;;
10096;SDS011;5087;42.662;23.466;2022-11-20T06:38:35;3.40;;;3.40;;
10096;SDS011;5087;42.662;23.466;2022-11-20T06:41:03;3.20;;;3.20;;
10096;SDS011;5087;42.662;23.466;2022-11-20T06:43:31;3.47;;;3.47;;
10096;SDS011;5087;42.662;23.466;2022-11-20T06:45:59;3.50;;;3.50;;
10096;SDS011;5087;42.662;23.466;2022-11-20T06:48:27;3.50;;;3.50;;
10096;SDS011;5087;42.662;23.466;2022-11-20T06:50:56;3.30;;;3.30;;
10096;SDS011;5087;42.662;23.466;2022-11-20T06:53:24;3.90;;;3.90;;
10096;SDS011;5087;42.662;23.466;2022-11-20T06:55:55;3.60;;;3.60;;
10096;SDS011;5087;42.662;23.466;2022-11-20T06:58:23;3.60;;;3.60;;
10096;SDS011;5087;42.662;23.466;2022-11-20T07:00:53;3.40;;;3.40;;
10096;SDS011;5087;42.662;23.466;2022-11-20T07:03:21;3.67;;;3.67;;
10096;SDS011;5087;42.662;23.466;2022-11-20T07:05:51;3.60;;;3.60;;
10096;SDS011;5087;42.662;23.466;2022-11-20T07:08:18;3.77;;;3.77;;
10096;SDS011;5087;42.662;23.466;2022-11-20T07:10:45;3.20;;;3.20;;
10096;SDS011;5087;42.662;23.466;2022-11-20T07:13:14;3.30;;;3.30;;
10096;SDS011;5087;42.662;23.466;2022-11-20T07:15:42;3.40;;;3.40;;
10096;SDS011;5087;42.662;23.466;2022-11-20T07:18:09;3.57;;;3.57;;
10096;SDS011;5087;42.662;23.466;2022-11-20T07:20:37;3.40;;;3.40;;
10096;SDS011;5087;42.662;23.466;2022-11-20T07:23:04;3.30;;;3.30;;
10096;SDS011;5087;42.662;23.466;2022-11-20T07:25:31;3.30;;;3.30;;
10096;SDS011;5087;42.662;23.466;2022-11-20T07:27:59;3.00;;;3.00;;
10096;SDS011;5087;42.662;23.466;2022-11-20T07:30:31;3.30;;;3.30;;
10096;SDS011;5087;42.662;23.466;2022-11-20T07:32:58;3.10;;;3.10;;
10096;SDS011;5087;42.662;23.466;2022-11-20T07:35:25;3.10;;;3.10;;
10096;SDS011;5087;42.662;23.466;2022-11-20T07:37:52;3.70;;;3.60;;
10096;SDS011;5087;42.662;23.466;2022-11-20T07:40:20;3.30;;;3.30;;
10096;SDS011;5087;42.662;23.466;2022-11-20T07:42:47;3.50;;;3.50;;
10096;SDS011;5087;42.662;23.466;2022-11-20T07:45:16;3.10;;;3.10;;
10096;SDS011;5087;42.662;23.466;2022-11-20T07:47:46;2.70;;;2.70;;
10096;SDS011;5087;42.662;23.466;2022-11-20T07:50:14;2.60;;;2.60;;
10096;SDS011;5087;42.662;23.466;2022-11-20T07:52:48;3.00;;;3.00;;
10096;SDS011;5087;42.662;23.466;2022-11-20T07:55:25;2.70;;;2.70;;
10096;SDS011;5087;42.662;23.466;2022-11-20T07:57:54;2.67;;;2.67;;
10096;SDS011;5087;42.662;23.466;2022-11-20T08:00:22;2.70;;;2.70;;
10096;SDS011;5087;42.662;23.466;2022-11-20T08:02:53;3.33;;;3.33;;
10096;SDS011;5087;42.662;23.466;2022-11-20T08:05:21;3.40;;;3.40;;
10096;SDS011;5087;42.662;23.466;2022-11-20T08:08:00;3.50;;;3.50;;
10096;SDS011;5087;42.662;23.466;2022-11-20T08:10:28;3.40;;;3.40;;
10096;SDS011;5087;42.662;23.466;2022-11-20T08:12:55;3.50;;;3.50;;
10096;SDS011;5087;42.662;23.466;2022-11-20T08:15:40;3.50;;;3.50;;
10096;SDS011;5087;42.662;23.466;2022-11-20T08:18:12;3.40;;;3.40;;
10096;SDS011;5087;42.662;23.466;2022-11-20T08:20:40;3.50;;;3.50;;
10096;SDS011;5087;42.662;23.466;2022-11-20T08:23:07;3.50;;;3.50;;
10096;SDS011;5087;42.662;23.466;2022-11-20T08:25:35;3.60;;;3.60;;
10096;SDS011;5087;42.662;23.466;2022-11-20T08:28:04;3.70;;;3.70;;
10096;SDS011;5087;42.662;23.466;2022-11-20T08:30:32;3.50;;;3.50;;
10096;SDS011;5087;42.662;23.466;2022-11-20T08:33:00;3.50;;;3.50;;
10096;SDS011;5087;42.662;23.466;2022-11-20T08:35:30;4.03;;;3.93;;
10096;SDS011;5087;42.662;23.466;2022-11-20T08:38:00;4.10;;;4.00;;
10096;SDS011;5087;42.662;23.466;2022-11-20T08:40:27;4.40;;;4.30;;
10096;SDS011;5087;42.662;23.466;2022-11-20T08:42:55;3.70;;;3.70;;
10096;SDS011;5087;42.662;23.466;2022-11-20T08:45:26;3.87;;;3.87;;
10096;SDS011;5087;42.662;23.466;2022-11-20T08:47:59;4.93;;;4.73;;
10096;SDS011;5087;42.662;23.466;2022-11-20T08:50:33;3.80;;;3.80;;
10096;SDS011;5087;42.662;23.466;2022-11-20T08:53:03;3.67;;;3.67;;
10096;SDS011;5087;42.662;23.466;2022-11-20T08:55:31;3.83;;;3.73;;
10096;SDS011;5087;42.662;23.466;2022-11-20T08:58:02;3.00;;;3.00;;
10096;SDS011;5087;42.662;23.466;2022-11-20T09:00:31;2.90;;;2.90;;
10096;SDS011;5087;42.662;23.466;2022-11-20T09:02:58;2.80;;;2.80;;
10096;SDS011;5087;42.662;23.466;2022-11-20T09:05:26;3.00;;;3.00;;
10096;SDS011;5087;42.662;23.466;2022-11-20T09:07:57;2.90;;;2.90;;
10096;SDS011;5087;42.662;23.466;2022-11-20T09:10:24;2.90;;;2.90;;
10096;SDS011;5087;42.662;23.466;2022-11-20T09:12:52;2.70;;;2.70;;
10096;SDS011;5087;42.662;23.466;2022-11-20T09:15:20;2.50;;;2.50;;
10096;SDS011;5087;42.662;23.466;2022-11-20T09:17:51;2.50;;;2.50;;
10096;SDS011;5087;42.662;23.466;2022-11-20T09:20:19;2.70;;;2.70;;
10096;SDS011;5087;42.662;23.466;2022-11-20T09:22:47;2.70;;;2.70;;
10096;SDS011;5087;42.662;23.466;2022-11-20T09:25:26;2.57;;;2.57;;
10096;SDS011;5087;42.662;23.466;2022-11-20T09:28:06;3.00;;;3.00;;
10096;SDS011;5087;42.662;23.466;2022-11-20T09:30:53;2.80;;;2.80;;
10096;SDS011;5087;42.662;23.466;2022-11-20T09:34:23;2.90;;;2.90;;
10096;SDS011;5087;42.662;23.466;2022-11-20T09:36:57;2.50;;;2.50;;
10096;SDS011;5087;42.662;23.466;2022-11-20T09:39:38;2.97;;;2.87;;
10096;SDS011;5087;42.662;23.466;2022-11-20T09:42:21;2.33;;;2.33;;
10096;SDS011;5087;42.662;23.466;2022-11-20T09:45:23;1.80;;;1.80;;
10096;SDS011;5087;42.662;23.466;2022-11-20T09:51:50;0.90;;;0.90;;
10096;SDS011;5087;42.662;23.466;2022-11-20T09:54:56;0.50;;;0.50;;
10096;SDS011;5087;42.662;23.466;2022-11-20T09:57:36;0.40;;;0.40;;
10096;SDS011;5087;42.662;23.466;2022-11-20T10:00:26;0.20;;;0.20;;
10096;SDS011;5087;42.662;23.466;2022-11-20T10:03:05;0.10;;;0.10;;
10096;SDS011;5087;42.662;23.466;2022-11-20T10:07:55;0.00;;;0.00;;
10096;SDS011;5087;42.662;23.466;2022-11-20T10:19:18;0.00;;;0.00;;
10096;SDS011;5087;42.662;23.466;2022-11-20T10:22:43;0.00;;;0.00;;
10096;SDS011;5087;42.662;23.466;2022-11-20T10:25:48;0.00;;;0.00;;
10096;SDS011;5087;42.662;23.466;2022-11-20T10:28:41;0.00;;;0.00;;
10096;SDS011;5087;42.662;23.466;2022-11-20T10:31:27;0.00;;;0.00;;
10096;SDS011;5087;42.662;23.466;2022-11-20T10:34:48;0.00;;;0.00;;
10096;SDS011;5087;42.662;23.466;2022-11-20T10:37:43;0.00;;;0.00;;
10096;SDS011;5087;42.662;23.466;2022-11-20T10:40:19;0.00;;;0.00;;
10096;SDS011;5087;42.662;23.466;2022-11-20T10:43:10;0.00;;;0.00;;
10096;SDS011;5087;42.662;23.466;2022-11-20T10:45:46;0.00;;;0.00;;
10096;SDS011;5087;42.662;23.466;2022-11-20T10:48:21;0.00;;;0.00;;
10096;SDS011;5087;42.662;23.466;2022-11-20T10:57:07;0.10;;;0.10;;
10096;SDS011;5087;42.662;23.466;2022-11-20T11:00:16;0.00;;;0.00;;
10096;SDS011;5087;42.662;23.466;2022-11-20T11:02:50;0.00;;;0.00;;
10096;SDS011;5087;42.662;23.466;2022-11-20T11:05:37;0.00;;;0.00;;
10096;SDS011;5087;42.662;23.466;2022-11-20T11:08:41;0.00;;;0.00;;
10096;SDS011;5087;42.662;23.466;2022-11-20T11:11:56;0.00;;;0.00;;
10096;SDS011;5087;42.662;23.466;2022-11-20T11:17:53;0.00;;;0.00;;
10096;SDS011;5087;42.662;23.466;2022-11-20T11:20:49;0.00;;;0.00;;
10096;SDS011;5087;42.662;23.466;2022-11-20T11:23:26;0.00;;;0.00;;
10096;SDS011;5087;42.662;23.466;2022-11-20T11:26:20;0.00;;;0.00;;
10096;SDS011;5087;42.662;23.466;2022-11-20T11:29:04;0.00;;;0.00;;
10096;SDS011;5087;42.662;23.466;2022-11-20T11:32:05;0.00;;;0.00;;
10096;SDS011;5087;42.662;23.466;2022-11-20T11:34:59;0.00;;;0.00;;
10096;SDS011;5087;42.662;23.466;2022-11-20T11:37:38;0.10;;;0.10;;
10096;SDS011;5087;42.662;23.466;2022-11-20T11:43:19;0.33;;;0.33;;
10096;SDS011;5087;42.662;23.466;2022-11-20T11:46:25;0.30;;;0.30;;
10096;SDS011;5087;42.662;23.466;2022-11-20T11:48:57;0.00;;;0.00;;
10096;SDS011;5087;42.662;23.466;2022-11-20T11:51:41;0.00;;;0.00;;
10096;SDS011;5087;42.662;23.466;2022-11-20T11:54:57;0.00;;;0.00;;
10096;SDS011;5087;42.662;23.466;2022-11-20T11:57:54;0.40;;;0.40;;
10096;SDS011;5087;42.662;23.466;2022-11-20T12:00:51;0.53;;;0.53;;
10096;SDS011;5087;42.662;23.466;2022-11-20T12:03:44;2.70;;;2.63;;
10096;SDS011;5087;42.662;23.466;2022-11-20T12:06:58;5.43;;;5.33;;
10096;SDS011;5087;42.662;23.466;2022-11-20T12:09:43;1.40;;;1.40;;
10096;SDS011;5087;42.662;23.466;2022-11-20T12:12:38;1.50;;;1.50;;
10096;SDS011;5087;42.662;23.466;2022-11-20T12:18:35;0.80;;;0.80;;
10096;SDS011;5087;42.662;23.466;2022-11-20T12:21:09;3.47;;;3.37;;
10096;SDS011;5087;42.662;23.466;2022-11-20T12:23:56;2.70;;;2.60;;
10096;SDS011;5087;42.662;23.466;2022-11-20T12:26:57;0.60;;;0.60;;
10096;SDS011;5087;42.662;23.466;2022-11-20T12:36:13;0.40;;;0.40;;
10096;SDS011;5087;42.662;23.466;2022-11-20T12:39:20;5.03;;;4.90;;
10096;SDS011;5087;42.662;23.466;2022-11-20T12:45:51;0.30;;;0.30;;
10096;SDS011;5087;42.662;23.466;2022-11-20T12:48:53;0.40;;;0.40;;
10096;SDS011;5087;42.662;23.466;2022-11-20T12:51:45;0.30;;;0.30;;
10096;SDS011;5087;42.662;23.466;2022-11-20T12:54:54;0.20;;;0.20;;
10096;SDS011;5087;42.662;23.466;2022-11-20T12:57:41;0.40;;;0.40;;
10096;SDS011;5087;42.662;23.466;2022-11-20T13:00:24;0.30;;;0.30;;
10096;SDS011;5087;42.662;23.466;2022-11-20T13:06:14;0.30;;;0.30;;
10096;SDS011;5087;42.662;23.466;2022-11-20T13:09:04;0.30;;;0.30;;
10096;SDS011;5087;42.662;23.466;2022-11-20T13:11:44;0.30;;;0.30;;
10096;SDS011;5087;42.662;23.466;2022-11-20T13:14:24;1.33;;;1.33;;
10096;SDS011;5087;42.662;23.466;2022-11-20T13:16:58;0.90;;;0.90;;
10096;SDS011;5087;42.662;23.466;2022-11-20T13:19:32;0.40;;;0.40;;
10096;SDS011;5087;42.662;23.466;2022-11-20T13:21:59;0.30;;;0.30;;
10096;SDS011;5087;42.662;23.466;2022-11-20T13:24:31;0.30;;;0.30;;
10096;SDS011;5087;42.662;23.466;2022-11-20T13:27:00;0.37;;;0.37;;
10096;SDS011;5087;42.662;23.466;2022-11-20T13:29:31;0.20;;;0.20;;
10096;SDS011;5087;42.662;23.466;2022-11-20T13:32:03;0.10;;;0.10;;
10096;SDS011;5087;42.662;23.466;2022-11-20T13:34:33;0.10;;;0.10;;
10096;SDS011;5087;42.662;23.466;2022-11-20T13:37:01;0.23;;;0.23;;
10096;SDS011;5087;42.662;23.466;2022-11-20T13:39:31;0.10;;;0.10;;
10096;SDS011;5087;42.662;23.466;2022-11-20T13:42:00;0.10;;;0.10;;
10096;SDS011;5087;42.662;23.466;2022-11-20T13:44:30;0.20;;;0.20;;
10096;SDS011;5087;42.662;23.466;2022-11-20T13:47:04;0.30;;;0.30;;
10096;SDS011;5087;42.662;23.466;2022-11-20T13:49:47;0.40;;;0.40;;
10096;SDS011;5087;42.662;23.466;2022-11-20T13:52:23;0.87;;;0.87;;
10096;SDS011;5087;42.662;23.466;2022-11-20T13:55:07;1.03;;;0.90;;
10096;SDS011;5087;42.662;23.466;2022-11-20T13:57:55;0.30;;;0.30;;
10096;SDS011;5087;42.662;23.466;2022-11-20T14:00:29;0.50;;;0.50;;
10096;SDS011;5087;42.662;23.466;2022-11-20T14:03:01;0.70;;;0.70;;
10096;SDS011;5087;42.662;23.466;2022-11-20T14:05:39;0.70;;;0.70;;
10096;SDS011;5087;42.662;23.466;2022-11-20T14:08:23;0.60;;;0.60;;
10096;SDS011;5087;42.662;23.466;2022-11-20T14:11:03;0.50;;;0.50;;
10096;SDS011;5087;42.662;23.466;2022-11-20T14:13:31;0.37;;;0.37;;
10096;SDS011;5087;42.662;23.466;2022-11-20T14:15:59;0.40;;;0.40;;
10096;SDS011;5087;42.662;23.466;2022-11-20T14:18:26;0.37;;;0.37;;
10096;SDS011;5087;42.662;23.466;2022-11-20T14:20:54;0.30;;;0.30;;
10096;SDS011;5087;42.662;23.466;2022-11-20T14:23:29;0.30;;;0.30;;
10096;SDS011;5087;42.662;23.466;2022-11-20T14:25:56;0.50;;;0.50;;
10096;SDS011;5087;42.662;23.466;2022-11-20T14:28:26;0.47;;;0.47;;
10096;SDS011;5087;42.662;23.466;2022-11-20T14:30:54;0.37;;;0.37;;
10096;SDS011;5087;42.662;23.466;2022-11-20T14:33:23;0.10;;;0.10;;
10096;SDS011;5087;42.662;23.466;2022-11-20T14:35:52;0.10;;;0.10;;
10096;SDS011;5087;42.662;23.466;2022-11-20T14:38:22;0.20;;;0.20;;
10096;SDS011;5087;42.662;23.466;2022-11-20T14:40:53;1.50;;;0.40;;
10096;SDS011;5087;42.662;23.466;2022-11-20T14:43:21;0.10;;;0.10;;
10096;SDS011;5087;42.662;23.466;2022-11-20T14:46:00;0.10;;;0.10;;
10096;SDS011;5087;42.662;23.466;2022-11-20T14:48:54;0.57;;;0.57;;
10096;SDS011;5087;42.662;23.466;2022-11-20T14:51:40;0.00;;;0.00;;
10096;SDS011;5087;42.662;23.466;2022-11-20T14:54:42;0.10;;;0.10;;
10096;SDS011;5087;42.662;23.466;2022-11-20T14:57:26;1.13;;;0.67;;
10096;SDS011;5087;42.662;23.466;2022-11-20T15:03:19;1.10;;;1.03;;
10096;SDS011;5087;42.662;23.466;2022-11-20T15:05:50;0.03;;;0.03;;
10096;SDS011;5087;42.662;23.466;2022-11-20T15:08:17;0.37;;;0.37;;
10096;SDS011;5087;42.662;23.466;2022-11-20T15:10:47;0.00;;;0.00;;
10096;SDS011;5087;42.662;23.466;2022-11-20T15:13:18;0.00;;;0.00;;
10096;SDS011;5087;42.662;23.466;2022-11-20T15:15:52;0.13;;;0.13;;
10096;SDS011;5087;42.662;23.466;2022-11-20T15:18:23;0.00;;;0.00;;
10096;SDS011;5087;42.662;23.466;2022-11-20T15:20:53;0.17;;;0.17;;
10096;SDS011;5087;42.662;23.466;2022-11-20T15:23:27;0.00;;;0.00;;
10096;SDS011;5087;42.662;23.466;2022-11-20T15:25:55;0.00;;;0.00;;
10096;SDS011;5087;42.662;23.466;2022-11-20T15:28:26;0.00;;;0.00;;
10096;SDS011;5087;42.662;23.466;2022-11-20T15:30:57;0.00;;;0.00;;
10096;SDS011;5087;42.662;23.466;2022-11-20T15:33:29;0.00;;;0.00;;
10096;SDS011;5087;42.662;23.466;2022-11-20T15:35:56;0.20;;;0.20;;
10096;SDS011;5087;42.662;23.466;2022-11-20T15:38:32;0.10;;;0.10;;
10096;SDS011;5087;42.662;23.466;2022-11-20T15:40:59;0.00;;;0.00;;
10096;SDS011;5087;42.662;23.466;2022-11-20T15:43:26;0.10;;;0.10;;
10096;SDS011;5087;42.662;23.466;2022-11-20T15:45:54;0.10;;;0.10;;
10096;SDS011;5087;42.662;23.466;2022-11-20T15:48:36;0.60;;;0.60;;
10096;SDS011;5087;42.662;23.466;2022-11-20T15:51:06;0.00;;;0.00;;
10096;SDS011;5087;42.662;23.466;2022-11-20T15:53:47;0.00;;;0.00;;
10096;SDS011;5087;42.662;23.466;2022-11-20T15:56:14;1.70;;;1.57;;
10096;SDS011;5087;42.662;23.466;2022-11-20T15:58:42;0.10;;;0.10;;
10096;SDS011;5087;42.662;23.466;2022-11-20T16:01:10;0.10;;;0.10;;
10096;SDS011;5087;42.662;23.466;2022-11-20T16:03:39;0.50;;;0.50;;
10096;SDS011;5087;42.662;23.466;2022-11-20T16:06:07;0.97;;;0.97;;
10096;SDS011;5087;42.662;23.466;2022-11-20T16:08:41;0.27;;;0.27;;
10096;SDS011;5087;42.662;23.466;2022-11-20T16:11:14;0.20;;;0.20;;
10096;SDS011;5087;42.662;23.466;2022-11-20T16:13:43;0.10;;;0.10;;
10096;SDS011;5087;42.662;23.466;2022-11-20T16:16:29;0.00;;;0.00;;